sensor_id;sensor_type;location;lat;lon;timestamp;temperature;humidity
37276;DHT22;23166;51.150;21.620;2022-07-29T00:00:36;13.10;99.90
37276;DHT22;23166;51.150;21.620;2022-07-29T00:03:03;13.10;99.90
37276;DHT22;23166;51.150;21.620;2022-07-29T00:05:30;13.10;99.90
37276;DHT22;23166;51.150;21.620;2022-07-29T00:07:58;13.10;99.90
37276;DHT22;23166;51.150;21.620;2022-07-29T00:10:24;13.00;99.90
37276;DHT22;23166;51.150;21.620;2022-07-29T00:12:51;13.00;99.90
37276;DHT22;23166;51.150;21.620;2022-07-29T00:15:17;13.00;99.90
37276;DHT22;23166;51.150;21.620;2022-07-29T00:17:43;12.90;99.90
37276;DHT22;23166;51.150;21.620;2022-07-29T00:20:10;12.90;99.90
37276;DHT22;23166;51.150;21.620;2022-07-29T00:22:38;12.90;99.90
37276;DHT22;23166;51.150;21.620;2022-07-29T00:25:05;12.90;99.90
37276;DHT22;23166;51.150;21.620;2022-07-29T00:27:32;12.80;99.90
37276;DHT22;23166;51.150;21.620;2022-07-29T00:29:59;12.80;99.90
37276;DHT22;23166;51.150;21.620;2022-07-29T00:32:26;12.70;99.90
37276;DHT22;23166;51.150;21.620;2022-07-29T00:34:52;12.60;99.90
37276;DHT22;23166;51.150;21.620;2022-07-29T00:37:37;12.60;99.90
37276;DHT22;23166;51.150;21.620;2022-07-29T00:40:04;12.50;99.90
37276;DHT22;23166;51.150;21.620;2022-07-29T00:42:51;12.40;99.90
37276;DHT22;23166;51.150;21.620;2022-07-29T00:45:05;12.40;99.90
37276;DHT22;23166;51.150;21.620;2022-07-29T00:47:31;12.40;99.90
37276;DHT22;23166;51.150;21.620;2022-07-29T00:49:58;12.30;99.90
37276;DHT22;23166;51.150;21.620;2022-07-29T00:52:24;12.30;99.90
37276;DHT22;23166;51.150;21.620;2022-07-29T00:54:51;12.20;99.90
37276;DHT22;23166;51.150;21.620;2022-07-29T00:57:17;12.20;99.90
37276;DHT22;23166;51.150;21.620;2022-07-29T00:59:44;12.20;99.90
37276;DHT22;23166;51.150;21.620;2022-07-29T01:02:10;12.20;99.90
37276;DHT22;23166;51.150;21.620;2022-07-29T01:04:36;12.10;99.90
37276;DHT22;23166;51.150;21.620;2022-07-29T01:07:04;12.00;99.90
37276;DHT22;23166;51.150;21.620;2022-07-29T01:09:33;12.00;99.90
37276;DHT22;23166;51.150;21.620;2022-07-29T01:12:00;12.00;99.90
37276;DHT22;23166;51.150;21.620;2022-07-29T01:14:28;11.90;99.90
37276;DHT22;23166;51.150;21.620;2022-07-29T01:17:02;11.90;99.90
37276;DHT22;23166;51.150;21.620;2022-07-29T01:30:56;11.70;99.90
37276;DHT22;23166;51.150;21.620;2022-07-29T01:33:24;11.70;99.90
37276;DHT22;23166;51.150;21.620;2022-07-29T01:36:13;11.60;99.90
37276;DHT22;23166;51.150;21.620;2022-07-29T01:38:41;11.60;99.90
37276;DHT22;23166;51.150;21.620;2022-07-29T01:41:12;11.60;99.90
37276;DHT22;23166;51.150;21.620;2022-07-29T01:44:24;11.50;99.90
37276;DHT22;23166;51.150;21.620;2022-07-29T01:46:14;11.50;99.90
37276;DHT22;23166;51.150;21.620;2022-07-29T01:48:44;11.50;99.90
37276;DHT22;23166;51.150;21.620;2022-07-29T01:51:14;11.50;99.90
37276;DHT22;23166;51.150;21.620;2022-07-29T01:54:01;11.50;99.90
37276;DHT22;23166;51.150;21.620;2022-07-29T01:56:29;11.50;99.90
37276;DHT22;23166;51.150;21.620;2022-07-29T01:58:59;11.40;99.90
37276;DHT22;23166;51.150;21.620;2022-07-29T02:01:27;11.40;99.90
37276;DHT22;23166;51.150;21.620;2022-07-29T02:03:56;11.40;99.90
37276;DHT22;23166;51.150;21.620;2022-07-29T02:06:24;11.40;99.90
37276;DHT22;23166;51.150;21.620;2022-07-29T02:08:52;11.40;99.90
37276;DHT22;23166;51.150;21.620;2022-07-29T02:11:19;11.40;99.90
37276;DHT22;23166;51.150;21.620;2022-07-29T02:13:47;11.40;99.90
37276;DHT22;23166;51.150;21.620;2022-07-29T02:16:16;11.40;99.90
37276;DHT22;23166;51.150;21.620;2022-07-29T02:18:45;11.30;99.90
37276;DHT22;23166;51.150;21.620;2022-07-29T02:21:12;11.30;99.90
37276;DHT22;23166;51.150;21.620;2022-07-29T02:23:39;11.30;99.90
37276;DHT22;23166;51.150;21.620;2022-07-29T02:26:07;11.30;99.90
37276;DHT22;23166;51.150;21.620;2022-07-29T02:28:35;11.30;99.90
37276;DHT22;23166;51.150;21.620;2022-07-29T02:31:02;11.30;99.90
37276;DHT22;23166;51.150;21.620;2022-07-29T02:33:30;11.20;99.90
37276;DHT22;23166;51.150;21.620;2022-07-29T02:35:58;11.20;99.90
37276;DHT22;23166;51.150;21.620;2022-07-29T02:38:27;11.30;99.90
37276;DHT22;23166;51.150;21.620;2022-07-29T02:41:15;11.20;99.90
37276;DHT22;23166;51.150;21.620;2022-07-29T02:43:44;11.20;99.90
37276;DHT22;23166;51.150;21.620;2022-07-29T02:46:17;11.20;99.90
37276;DHT22;23166;51.150;21.620;2022-07-29T02:48:58;11.10;99.90
37276;DHT22;23166;51.150;21.620;2022-07-29T02:51:27;11.10;99.90
37276;DHT22;23166;51.150;21.620;2022-07-29T02:53:56;11.10;99.90
37276;DHT22;23166;51.150;21.620;2022-07-29T02:56:28;11.00;99.90
37276;DHT22;23166;51.150;21.620;2022-07-29T02:59:00;11.00;99.90
37276;DHT22;23166;51.150;21.620;2022-07-29T03:01:30;10.90;99.90
37276;DHT22;23166;51.150;21.620;2022-07-29T03:04:00;10.90;99.90
37276;DHT22;23166;51.150;21.620;2022-07-29T03:06:28;10.90;99.90
37276;DHT22;23166;51.150;21.620;2022-07-29T03:08:55;10.90;99.90
37276;DHT22;23166;51.150;21.620;2022-07-29T03:11:24;10.90;99.90
37276;DHT22;23166;51.150;21.620;2022-07-29T03:13:51;10.90;99.90
37276;DHT22;23166;51.150;21.620;2022-07-29T03:16:19;10.90;99.90
37276;DHT22;23166;51.150;21.620;2022-07-29T03:18:47;11.00;99.90
37276;DHT22;23166;51.150;21.620;2022-07-29T03:21:17;11.00;99.90
37276;DHT22;23166;51.150;21.620;2022-07-29T03:23:43;11.10;99.90
37276;DHT22;23166;51.150;21.620;2022-07-29T03:26:13;11.20;99.90
37276;DHT22;23166;51.150;21.620;2022-07-29T03:28:40;11.20;99.90
37276;DHT22;23166;51.150;21.620;2022-07-29T03:31:06;11.30;99.90
37276;DHT22;23166;51.150;21.620;2022-07-29T03:33:32;11.40;99.90
37276;DHT22;23166;51.150;21.620;2022-07-29T03:35:59;11.40;99.90
37276;DHT22;23166;51.150;21.620;2022-07-29T03:38:29;11.50;99.90
37276;DHT22;23166;51.150;21.620;2022-07-29T03:40:58;11.70;99.90
37276;DHT22;23166;51.150;21.620;2022-07-29T03:43:32;12.00;99.90
37276;DHT22;23166;51.150;21.620;2022-07-29T03:46:00;12.50;99.90
37276;DHT22;23166;51.150;21.620;2022-07-29T03:48:30;13.20;99.90
37276;DHT22;23166;51.150;21.620;2022-07-29T03:50:56;13.90;99.90
37276;DHT22;23166;51.150;21.620;2022-07-29T03:53:23;14.70;99.90
37276;DHT22;23166;51.150;21.620;2022-07-29T03:55:52;15.40;99.90
37276;DHT22;23166;51.150;21.620;2022-07-29T03:58:23;16.00;99.90
37276;DHT22;23166;51.150;21.620;2022-07-29T04:00:52;16.70;99.90
37276;DHT22;23166;51.150;21.620;2022-07-29T04:03:20;17.20;99.90
37276;DHT22;23166;51.150;21.620;2022-07-29T04:05:57;17.70;99.90
37276;DHT22;23166;51.150;21.620;2022-07-29T04:08:14;18.20;99.90
37276;DHT22;23166;51.150;21.620;2022-07-29T04:10:41;18.50;99.90
37276;DHT22;23166;51.150;21.620;2022-07-29T04:13:07;18.70;99.90
37276;DHT22;23166;51.150;21.620;2022-07-29T04:15:34;18.80;99.90
37276;DHT22;23166;51.150;21.620;2022-07-29T04:18:00;18.90;99.90
37276;DHT22;23166;51.150;21.620;2022-07-29T04:20:27;18.90;99.90
37276;DHT22;23166;51.150;21.620;2022-07-29T04:22:53;18.70;99.90
37276;DHT22;23166;51.150;21.620;2022-07-29T04:25:20;18.40;99.90
37276;DHT22;23166;51.150;21.620;2022-07-29T04:27:46;18.20;99.90
37276;DHT22;23166;51.150;21.620;2022-07-29T04:30:32;17.90;99.90
37276;DHT22;23166;51.150;21.620;2022-07-29T04:33:00;17.60;99.90
37276;DHT22;23166;51.150;21.620;2022-07-29T04:35:28;17.40;99.90
37276;DHT22;23166;51.150;21.620;2022-07-29T04:37:54;17.30;99.90
37276;DHT22;23166;51.150;21.620;2022-07-29T04:40:21;17.10;99.90
37276;DHT22;23166;51.150;21.620;2022-07-29T04:42:47;17.00;99.90
37276;DHT22;23166;51.150;21.620;2022-07-29T04:45:14;16.90;99.90
37276;DHT22;23166;51.150;21.620;2022-07-29T04:47:40;16.90;99.90
37276;DHT22;23166;51.150;21.620;2022-07-29T04:50:08;16.90;99.90
37276;DHT22;23166;51.150;21.620;2022-07-29T04:52:34;16.90;99.90
37276;DHT22;23166;51.150;21.620;2022-07-29T04:55:02;17.00;99.90
37276;DHT22;23166;51.150;21.620;2022-07-29T04:57:29;17.10;99.90
37276;DHT22;23166;51.150;21.620;2022-07-29T04:59:55;17.20;99.90
37276;DHT22;23166;51.150;21.620;2022-07-29T05:02:21;17.30;99.90
37276;DHT22;23166;51.150;21.620;2022-07-29T05:04:48;17.40;99.90
37276;DHT22;23166;51.150;21.620;2022-07-29T05:07:15;17.50;99.90
37276;DHT22;23166;51.150;21.620;2022-07-29T05:09:41;17.60;99.90
37276;DHT22;23166;51.150;21.620;2022-07-29T05:12:08;17.70;99.90
37276;DHT22;23166;51.150;21.620;2022-07-29T05:14:35;17.80;99.90
37276;DHT22;23166;51.150;21.620;2022-07-29T05:17:02;17.90;99.90
37276;DHT22;23166;51.150;21.620;2022-07-29T05:19:28;18.00;99.90
37276;DHT22;23166;51.150;21.620;2022-07-29T05:21:54;18.10;99.90
37276;DHT22;23166;51.150;21.620;2022-07-29T05:24:21;18.10;99.90
37276;DHT22;23166;51.150;21.620;2022-07-29T05:26:47;18.20;99.90
37276;DHT22;23166;51.150;21.620;2022-07-29T05:29:13;18.30;99.90
37276;DHT22;23166;51.150;21.620;2022-07-29T05:31:40;18.40;99.90
37276;DHT22;23166;51.150;21.620;2022-07-29T05:34:26;18.50;99.90
37276;DHT22;23166;51.150;21.620;2022-07-29T05:36:53;18.60;99.90
37276;DHT22;23166;51.150;21.620;2022-07-29T05:39:19;18.80;99.90
37276;DHT22;23166;51.150;21.620;2022-07-29T05:41:46;18.90;99.90
37276;DHT22;23166;51.150;21.620;2022-07-29T05:44:12;19.00;99.90
37276;DHT22;23166;51.150;21.620;2022-07-29T05:46:39;19.10;99.90
37276;DHT22;23166;51.150;21.620;2022-07-29T05:49:06;19.20;99.90
37276;DHT22;23166;51.150;21.620;2022-07-29T05:51:33;19.30;99.90
37276;DHT22;23166;51.150;21.620;2022-07-29T05:53:59;19.50;99.90
37276;DHT22;23166;51.150;21.620;2022-07-29T05:56:26;19.60;99.90
37276;DHT22;23166;51.150;21.620;2022-07-29T05:58:52;19.60;99.90
37276;DHT22;23166;51.150;21.620;2022-07-29T06:01:18;19.70;99.90
37276;DHT22;23166;51.150;21.620;2022-07-29T06:03:45;19.80;99.90
37276;DHT22;23166;51.150;21.620;2022-07-29T06:06:12;20.00;99.90
37276;DHT22;23166;51.150;21.620;2022-07-29T06:08:42;20.00;99.90
37276;DHT22;23166;51.150;21.620;2022-07-29T06:11:19;20.10;99.90
37276;DHT22;23166;51.150;21.620;2022-07-29T06:13:51;20.20;99.90
37276;DHT22;23166;51.150;21.620;2022-07-29T06:16:19;20.30;99.90
37276;DHT22;23166;51.150;21.620;2022-07-29T06:18:46;20.40;99.90
37276;DHT22;23166;51.150;21.620;2022-07-29T06:21:13;20.50;99.90
37276;DHT22;23166;51.150;21.620;2022-07-29T06:23:49;20.60;99.90
37276;DHT22;23166;51.150;21.620;2022-07-29T06:26:37;20.70;99.90
37276;DHT22;23166;51.150;21.620;2022-07-29T06:29:04;20.80;99.90
37276;DHT22;23166;51.150;21.620;2022-07-29T06:31:31;20.90;99.90
37276;DHT22;23166;51.150;21.620;2022-07-29T06:33:57;21.10;99.90
37276;DHT22;23166;51.150;21.620;2022-07-29T06:36:24;21.20;99.90
37276;DHT22;23166;51.150;21.620;2022-07-29T06:38:50;21.30;99.90
37276;DHT22;23166;51.150;21.620;2022-07-29T06:41:17;21.30;99.90
37276;DHT22;23166;51.150;21.620;2022-07-29T06:43:44;21.40;99.90
37276;DHT22;23166;51.150;21.620;2022-07-29T06:46:15;21.40;99.90
37276;DHT22;23166;51.150;21.620;2022-07-29T06:48:42;21.40;99.90
37276;DHT22;23166;51.150;21.620;2022-07-29T06:51:09;21.40;99.90
37276;DHT22;23166;51.150;21.620;2022-07-29T06:53:38;21.50;99.90
37276;DHT22;23166;51.150;21.620;2022-07-29T06:56:06;21.60;99.90
37276;DHT22;23166;51.150;21.620;2022-07-29T06:58:36;21.70;99.90
37276;DHT22;23166;51.150;21.620;2022-07-29T07:01:04;21.80;99.90
37276;DHT22;23166;51.150;21.620;2022-07-29T07:03:31;21.80;99.90
37276;DHT22;23166;51.150;21.620;2022-07-29T07:05:57;21.90;99.90
37276;DHT22;23166;51.150;21.620;2022-07-29T07:08:24;22.00;99.60
37276;DHT22;23166;51.150;21.620;2022-07-29T07:10:51;22.10;99.00
37276;DHT22;23166;51.150;21.620;2022-07-29T07:13:17;22.10;98.50
37276;DHT22;23166;51.150;21.620;2022-07-29T07:15:44;22.20;98.50
37276;DHT22;23166;51.150;21.620;2022-07-29T07:18:11;22.20;98.10
37276;DHT22;23166;51.150;21.620;2022-07-29T07:20:37;22.20;97.90
37276;DHT22;23166;51.150;21.620;2022-07-29T07:23:04;22.20;98.40
37276;DHT22;23166;51.150;21.620;2022-07-29T07:25:30;22.20;98.20
37276;DHT22;23166;51.150;21.620;2022-07-29T07:27:56;22.20;98.00
37276;DHT22;23166;51.150;21.620;2022-07-29T07:30:23;22.20;98.40
37276;DHT22;23166;51.150;21.620;2022-07-29T07:32:49;22.30;98.40
37276;DHT22;23166;51.150;21.620;2022-07-29T07:35:16;22.50;97.60
37276;DHT22;23166;51.150;21.620;2022-07-29T07:37:43;22.60;97.80
37276;DHT22;23166;51.150;21.620;2022-07-29T07:40:11;22.80;96.90
37276;DHT22;23166;51.150;21.620;2022-07-29T07:42:38;22.90;95.50
37276;DHT22;23166;51.150;21.620;2022-07-29T07:45:06;23.00;95.00
37276;DHT22;23166;51.150;21.620;2022-07-29T07:47:32;23.10;95.20
37276;DHT22;23166;51.150;21.620;2022-07-29T07:49:59;23.10;94.90
37276;DHT22;23166;51.150;21.620;2022-07-29T07:52:26;23.10;94.10
37276;DHT22;23166;51.150;21.620;2022-07-29T07:54:52;23.10;94.90
37276;DHT22;23166;51.150;21.620;2022-07-29T07:57:19;23.00;94.80
37276;DHT22;23166;51.150;21.620;2022-07-29T07:59:45;23.00;94.30
37276;DHT22;23166;51.150;21.620;2022-07-29T08:02:11;23.00;93.00
37276;DHT22;23166;51.150;21.620;2022-07-29T08:04:38;23.00;94.10
37276;DHT22;23166;51.150;21.620;2022-07-29T08:07:06;23.00;92.70
37276;DHT22;23166;51.150;21.620;2022-07-29T08:09:33;23.00;92.90
37276;DHT22;23166;51.150;21.620;2022-07-29T08:12:00;23.10;93.30
37276;DHT22;23166;51.150;21.620;2022-07-29T08:14:30;23.10;92.90
37276;DHT22;23166;51.150;21.620;2022-07-29T08:16:56;23.20;92.00
37276;DHT22;23166;51.150;21.620;2022-07-29T08:19:23;23.30;92.00
37276;DHT22;23166;51.150;21.620;2022-07-29T08:21:49;23.40;92.10
37276;DHT22;23166;51.150;21.620;2022-07-29T08:24:16;23.50;91.50
37276;DHT22;23166;51.150;21.620;2022-07-29T08:27:01;23.50;90.50
37276;DHT22;23166;51.150;21.620;2022-07-29T08:29:27;23.70;88.80
37276;DHT22;23166;51.150;21.620;2022-07-29T08:31:54;23.70;90.30
37276;DHT22;23166;51.150;21.620;2022-07-29T08:34:20;23.70;89.20
37276;DHT22;23166;51.150;21.620;2022-07-29T08:36:46;23.80;88.10
37276;DHT22;23166;51.150;21.620;2022-07-29T08:39:13;23.90;87.70
37276;DHT22;23166;51.150;21.620;2022-07-29T08:41:39;24.00;84.90
37276;DHT22;23166;51.150;21.620;2022-07-29T08:44:06;24.10;85.20
37276;DHT22;23166;51.150;21.620;2022-07-29T08:46:33;24.10;84.20
37276;DHT22;23166;51.150;21.620;2022-07-29T08:48:59;24.20;84.50
37276;DHT22;23166;51.150;21.620;2022-07-29T08:51:26;24.20;83.70
37276;DHT22;23166;51.150;21.620;2022-07-29T08:53:56;24.20;84.00
37276;DHT22;23166;51.150;21.620;2022-07-29T08:56:23;24.30;82.50
37276;DHT22;23166;51.150;21.620;2022-07-29T08:58:49;24.40;81.70
37276;DHT22;23166;51.150;21.620;2022-07-29T09:01:20;24.50;80.20
37276;DHT22;23166;51.150;21.620;2022-07-29T09:03:46;24.50;82.00
37276;DHT22;23166;51.150;21.620;2022-07-29T09:06:17;24.60;81.80
37276;DHT22;23166;51.150;21.620;2022-07-29T09:08:44;24.70;79.80
37276;DHT22;23166;51.150;21.620;2022-07-29T09:11:13;24.90;81.50
37276;DHT22;23166;51.150;21.620;2022-07-29T09:13:40;24.90;80.10
37276;DHT22;23166;51.150;21.620;2022-07-29T09:16:07;25.10;79.90
37276;DHT22;23166;51.150;21.620;2022-07-29T09:18:35;25.20;78.70
37276;DHT22;23166;51.150;21.620;2022-07-29T09:21:03;25.30;78.40
37276;DHT22;23166;51.150;21.620;2022-07-29T09:24:08;25.30;79.10
37276;DHT22;23166;51.150;21.620;2022-07-29T09:26:42;25.40;77.50
37276;DHT22;23166;51.150;21.620;2022-07-29T09:29:12;25.50;77.60
37276;DHT22;23166;51.150;21.620;2022-07-29T09:31:41;25.60;76.20
37276;DHT22;23166;51.150;21.620;2022-07-29T09:34:08;25.70;76.70
37276;DHT22;23166;51.150;21.620;2022-07-29T09:36:46;25.80;77.70
37276;DHT22;23166;51.150;21.620;2022-07-29T09:39:14;25.80;77.00
37276;DHT22;23166;51.150;21.620;2022-07-29T09:41:45;25.90;75.00
37276;DHT22;23166;51.150;21.620;2022-07-29T09:44:12;25.90;76.40
37276;DHT22;23166;51.150;21.620;2022-07-29T09:46:59;26.00;76.30
37276;DHT22;23166;51.150;21.620;2022-07-29T09:49:23;26.10;75.20
37276;DHT22;23166;51.150;21.620;2022-07-29T09:52:04;26.20;73.40
37276;DHT22;23166;51.150;21.620;2022-07-29T09:54:31;26.30;74.50
37276;DHT22;23166;51.150;21.620;2022-07-29T09:57:04;26.30;73.40
37276;DHT22;23166;51.150;21.620;2022-07-29T09:59:30;26.30;73.10
37276;DHT22;23166;51.150;21.620;2022-07-29T10:01:57;26.30;72.00
37276;DHT22;23166;51.150;21.620;2022-07-29T10:04:23;26.30;73.00
37276;DHT22;23166;51.150;21.620;2022-07-29T10:07:02;26.30;73.10
37276;DHT22;23166;51.150;21.620;2022-07-29T10:09:31;26.40;71.40
37276;DHT22;23166;51.150;21.620;2022-07-29T10:12:12;26.40;71.50
37276;DHT22;23166;51.150;21.620;2022-07-29T10:14:42;26.50;70.50
37276;DHT22;23166;51.150;21.620;2022-07-29T10:17:10;26.50;71.60
37276;DHT22;23166;51.150;21.620;2022-07-29T10:19:38;26.50;70.90
37276;DHT22;23166;51.150;21.620;2022-07-29T10:22:06;26.50;72.00
37276;DHT22;23166;51.150;21.620;2022-07-29T10:24:34;26.50;71.70
37276;DHT22;23166;51.150;21.620;2022-07-29T10:27:06;26.60;71.00
37276;DHT22;23166;51.150;21.620;2022-07-29T10:29:30;26.50;70.90
37276;DHT22;23166;51.150;21.620;2022-07-29T10:43:48;26.30;70.80
37276;DHT22;23166;51.150;21.620;2022-07-29T10:46:15;26.50;71.20
37276;DHT22;23166;51.150;21.620;2022-07-29T10:51:50;26.90;70.40
37276;DHT22;23166;51.150;21.620;2022-07-29T10:53:56;27.10;69.60
37276;DHT22;23166;51.150;21.620;2022-07-29T10:56:29;27.40;69.50
37276;DHT22;23166;51.150;21.620;2022-07-29T11:01:47;27.70;67.60
37276;DHT22;23166;51.150;21.620;2022-07-29T11:04:16;27.90;67.90
37276;DHT22;23166;51.150;21.620;2022-07-29T11:09:34;28.10;67.00
37276;DHT22;23166;51.150;21.620;2022-07-29T11:12:00;28.20;66.80
37276;DHT22;23166;51.150;21.620;2022-07-29T11:17:21;28.40;65.90
37276;DHT22;23166;51.150;21.620;2022-07-29T11:19:51;28.40;64.30
37276;DHT22;23166;51.150;21.620;2022-07-29T11:22:35;28.40;64.80
37276;DHT22;23166;51.150;21.620;2022-07-29T11:25:16;28.50;66.20
37276;DHT22;23166;51.150;21.620;2022-07-29T11:27:44;28.50;66.30
37276;DHT22;23166;51.150;21.620;2022-07-29T11:30:11;28.60;65.90
37276;DHT22;23166;51.150;21.620;2022-07-29T11:32:43;28.70;64.00
37276;DHT22;23166;51.150;21.620;2022-07-29T11:35:20;28.60;64.40
37276;DHT22;23166;51.150;21.620;2022-07-29T11:40:35;28.80;64.60
37276;DHT22;23166;51.150;21.620;2022-07-29T11:43:02;28.90;63.60
37276;DHT22;23166;51.150;21.620;2022-07-29T11:45:45;29.00;63.70
37276;DHT22;23166;51.150;21.620;2022-07-29T11:47:59;28.90;64.00
37276;DHT22;23166;51.150;21.620;2022-07-29T11:50:30;28.90;64.60
37276;DHT22;23166;51.150;21.620;2022-07-29T11:52:56;28.90;63.20
37276;DHT22;23166;51.150;21.620;2022-07-29T11:55:24;28.80;63.00
37276;DHT22;23166;51.150;21.620;2022-07-29T11:57:59;28.80;63.70
37276;DHT22;23166;51.150;21.620;2022-07-29T12:00:25;28.80;64.00
37276;DHT22;23166;51.150;21.620;2022-07-29T12:02:51;28.90;63.50
37276;DHT22;23166;51.150;21.620;2022-07-29T12:05:18;28.80;62.60
37276;DHT22;23166;51.150;21.620;2022-07-29T12:07:45;28.70;62.60
37276;DHT22;23166;51.150;21.620;2022-07-29T12:10:12;28.60;62.90
37276;DHT22;23166;51.150;21.620;2022-07-29T12:12:39;28.40;64.40
37276;DHT22;23166;51.150;21.620;2022-07-29T12:15:14;28.20;64.30
37276;DHT22;23166;51.150;21.620;2022-07-29T12:17:41;28.20;64.00
37276;DHT22;23166;51.150;21.620;2022-07-29T12:20:08;28.20;64.00
37276;DHT22;23166;51.150;21.620;2022-07-29T12:22:35;28.30;65.10
37276;DHT22;23166;51.150;21.620;2022-07-29T12:25:05;28.40;63.30
37276;DHT22;23166;51.150;21.620;2022-07-29T12:27:32;28.40;63.60
37276;DHT22;23166;51.150;21.620;2022-07-29T12:30:00;28.40;63.70
37276;DHT22;23166;51.150;21.620;2022-07-29T12:32:42;28.50;63.90
37276;DHT22;23166;51.150;21.620;2022-07-29T12:35:13;28.50;63.10
37276;DHT22;23166;51.150;21.620;2022-07-29T12:37:42;28.40;63.00
37276;DHT22;23166;51.150;21.620;2022-07-29T12:40:11;28.30;63.50
37276;DHT22;23166;51.150;21.620;2022-07-29T12:42:39;28.30;63.60
37276;DHT22;23166;51.150;21.620;2022-07-29T12:45:06;28.30;63.30
37276;DHT22;23166;51.150;21.620;2022-07-29T12:47:33;28.30;64.20
37276;DHT22;23166;51.150;21.620;2022-07-29T12:50:10;28.30;63.60
37276;DHT22;23166;51.150;21.620;2022-07-29T12:52:37;28.40;62.80
37276;DHT22;23166;51.150;21.620;2022-07-29T12:55:04;28.50;62.70
37276;DHT22;23166;51.150;21.620;2022-07-29T12:57:31;28.40;62.80
37276;DHT22;23166;51.150;21.620;2022-07-29T13:00:02;28.30;62.80
37276;DHT22;23166;51.150;21.620;2022-07-29T13:02:29;28.30;63.00
37276;DHT22;23166;51.150;21.620;2022-07-29T13:04:59;28.20;63.90
37276;DHT22;23166;51.150;21.620;2022-07-29T13:07:28;28.20;64.60
37276;DHT22;23166;51.150;21.620;2022-07-29T13:13:04;28.30;63.80
37276;DHT22;23166;51.150;21.620;2022-07-29T13:15:32;28.40;63.20
37276;DHT22;23166;51.150;21.620;2022-07-29T13:17:58;28.40;62.90
37276;DHT22;23166;51.150;21.620;2022-07-29T13:20:26;28.50;63.00
37276;DHT22;23166;51.150;21.620;2022-07-29T13:22:56;28.50;62.40
37276;DHT22;23166;51.150;21.620;2022-07-29T13:25:30;28.50;63.20
37276;DHT22;23166;51.150;21.620;2022-07-29T13:27:58;28.50;61.90
37276;DHT22;23166;51.150;21.620;2022-07-29T13:30:25;28.50;63.30
37276;DHT22;23166;51.150;21.620;2022-07-29T13:32:52;28.40;63.30
37276;DHT22;23166;51.150;21.620;2022-07-29T13:35:18;28.50;63.30
37276;DHT22;23166;51.150;21.620;2022-07-29T13:37:46;28.50;62.50
37276;DHT22;23166;51.150;21.620;2022-07-29T13:40:12;28.50;62.60
37276;DHT22;23166;51.150;21.620;2022-07-29T13:42:40;28.40;62.90
37276;DHT22;23166;51.150;21.620;2022-07-29T13:45:08;28.30;62.70
37276;DHT22;23166;51.150;21.620;2022-07-29T13:47:34;28.20;63.80
37276;DHT22;23166;51.150;21.620;2022-07-29T13:50:01;28.10;63.00
37276;DHT22;23166;51.150;21.620;2022-07-29T13:52:27;28.00;62.80
37276;DHT22;23166;51.150;21.620;2022-07-29T13:54:54;28.00;63.50
37276;DHT22;23166;51.150;21.620;2022-07-29T13:57:20;27.90;63.30
37276;DHT22;23166;51.150;21.620;2022-07-29T13:59:47;27.80;63.20
37276;DHT22;23166;51.150;21.620;2022-07-29T14:02:13;27.70;63.50
37276;DHT22;23166;51.150;21.620;2022-07-29T14:04:40;27.60;63.50
37276;DHT22;23166;51.150;21.620;2022-07-29T14:07:06;27.60;63.90
37276;DHT22;23166;51.150;21.620;2022-07-29T14:09:32;27.50;63.90
37276;DHT22;23166;51.150;21.620;2022-07-29T14:11:59;27.40;63.50
37276;DHT22;23166;51.150;21.620;2022-07-29T14:14:25;27.40;63.70
37276;DHT22;23166;51.150;21.620;2022-07-29T14:16:52;27.40;64.50
37276;DHT22;23166;51.150;21.620;2022-07-29T14:19:18;27.40;64.10
37276;DHT22;23166;51.150;21.620;2022-07-29T14:21:45;27.30;64.20
37276;DHT22;23166;51.150;21.620;2022-07-29T14:24:12;27.20;64.30
37276;DHT22;23166;51.150;21.620;2022-07-29T14:26:38;27.10;64.40
37276;DHT22;23166;51.150;21.620;2022-07-29T14:29:04;27.10;65.10
37276;DHT22;23166;51.150;21.620;2022-07-29T14:31:31;27.00;64.40
37276;DHT22;23166;51.150;21.620;2022-07-29T14:33:57;27.00;64.60
37276;DHT22;23166;51.150;21.620;2022-07-29T14:36:24;27.00;65.00
37276;DHT22;23166;51.150;21.620;2022-07-29T14:38:50;27.00;65.40
37276;DHT22;23166;51.150;21.620;2022-07-29T14:41:16;26.90;65.60
37276;DHT22;23166;51.150;21.620;2022-07-29T14:43:43;27.00;65.00
37276;DHT22;23166;51.150;21.620;2022-07-29T14:46:09;27.00;64.80
37276;DHT22;23166;51.150;21.620;2022-07-29T14:48:36;27.20;64.40
37276;DHT22;23166;51.150;21.620;2022-07-29T14:51:02;27.20;64.50
37276;DHT22;23166;51.150;21.620;2022-07-29T14:53:28;27.40;65.00
37276;DHT22;23166;51.150;21.620;2022-07-29T14:55:55;27.40;64.10
37276;DHT22;23166;51.150;21.620;2022-07-29T14:58:21;27.40;64.40
37276;DHT22;23166;51.150;21.620;2022-07-29T15:00:48;27.30;64.60
37276;DHT22;23166;51.150;21.620;2022-07-29T15:03:20;27.20;65.30
37276;DHT22;23166;51.150;21.620;2022-07-29T15:05:48;27.20;65.10
37276;DHT22;23166;51.150;21.620;2022-07-29T15:08:15;27.10;65.00
37276;DHT22;23166;51.150;21.620;2022-07-29T15:10:41;27.10;64.40
37276;DHT22;23166;51.150;21.620;2022-07-29T15:13:08;27.10;64.70
37276;DHT22;23166;51.150;21.620;2022-07-29T15:15:34;27.10;64.50
37276;DHT22;23166;51.150;21.620;2022-07-29T15:18:00;27.00;64.00
37276;DHT22;23166;51.150;21.620;2022-07-29T15:20:27;27.00;64.50
37276;DHT22;23166;51.150;21.620;2022-07-29T15:22:54;27.20;65.00
37276;DHT22;23166;51.150;21.620;2022-07-29T15:25:23;27.40;65.80
37276;DHT22;23166;51.150;21.620;2022-07-29T15:27:50;27.60;65.50
37276;DHT22;23166;51.150;21.620;2022-07-29T15:30:16;27.80;65.70
37276;DHT22;23166;51.150;21.620;2022-07-29T15:32:43;27.80;65.50
37276;DHT22;23166;51.150;21.620;2022-07-29T15:35:10;27.90;65.80
37276;DHT22;23166;51.150;21.620;2022-07-29T15:37:37;27.90;65.30
37276;DHT22;23166;51.150;21.620;2022-07-29T15:40:05;27.90;65.50
37276;DHT22;23166;51.150;21.620;2022-07-29T15:42:31;27.90;65.40
37276;DHT22;23166;51.150;21.620;2022-07-29T15:44:59;27.80;64.20
37276;DHT22;23166;51.150;21.620;2022-07-29T15:47:29;27.70;64.50
37276;DHT22;23166;51.150;21.620;2022-07-29T15:49:55;27.60;64.60
37276;DHT22;23166;51.150;21.620;2022-07-29T15:52:22;27.50;65.10
37276;DHT22;23166;51.150;21.620;2022-07-29T15:54:48;27.40;65.60
37276;DHT22;23166;51.150;21.620;2022-07-29T15:57:15;27.20;65.50
37276;DHT22;23166;51.150;21.620;2022-07-29T15:59:42;27.00;65.50
37276;DHT22;23166;51.150;21.620;2022-07-29T16:02:08;26.90;65.80